Terminal Aerodrome Forecast
Issued by NWS Wilmington, NC

Home | Current Version | Previous Version | Text Only | Print | Product List | Glossary On
Versions: 1 2 3 4 5 6 7 8 9 10 11 12 13 14 15
000
FTUS42 KILM 050541
TAFILM
TAF
KILM 050541Z 0506/0606 VRB05KT P6SM SKC
     FM051400 14009KT P6SM SCT050 SCT250
     FM052300 12003KT P6SM BKN250=

USA.gov is the U.S. government's official web portal to all federal, state and local government web resources and services.